createdAt,value
2019-01-14T00:00:29.690Z,80.95
2019-01-14T00:03:09.708Z,76.23
2019-01-14T00:05:49.889Z,78.40
2019-01-14T00:08:25.480Z,79.00
2019-01-14T00:11:01.041Z,75.90
2019-01-14T00:13:35.299Z,76.53
2019-01-14T00:16:13.593Z,79.30
2019-01-14T00:18:48.909Z,78.27
2019-01-14T00:21:25.059Z,78.07
2019-01-14T00:24:00.192Z,74.90
2019-01-14T00:27:09.744Z,74.83
2019-01-14T00:29:51.599Z,79.93
2019-01-14T00:32:25.973Z,80.83
2019-01-14T00:35:03.782Z,82.00
2019-01-14T00:37:38.424Z,80.17
2019-01-14T00:40:14.729Z,78.10
2019-01-14T00:42:49.308Z,79.33
2019-01-14T00:45:26.986Z,81.27
2019-01-14T00:48:01.459Z,75.93
2019-01-14T00:50:37.677Z,77.43
2019-01-14T00:53:14.769Z,77.70
2019-01-14T00:55:50.811Z,79.57
2019-01-14T00:58:29.948Z,76.53
2019-01-14T01:01:27.248Z,77.70
2019-01-14T01:04:01.139Z,76.87
2019-01-14T01:06:38.081Z,75.90
2019-01-14T01:09:19.974Z,75.37
2019-01-14T01:12:00.438Z,78.87
2019-01-14T01:14:53.918Z,78.40
2019-01-14T01:17:28.280Z,77.83
2019-01-14T01:20:03.007Z,77.50
2019-01-14T01:22:42.454Z,76.73
2019-01-14T01:25:19.454Z,76.40
2019-01-14T01:27:56.471Z,80.85
2019-01-14T01:30:32.036Z,81.00
2019-01-14T01:33:23.023Z,81.73
2019-01-14T01:36:01.132Z,84.20
2019-01-14T01:38:38.057Z,83.47
2019-01-14T01:41:22.456Z,81.12
2019-01-14T01:43:58.092Z,81.03
2019-01-14T01:46:39.235Z,81.43
2019-01-14T01:49:16.764Z,79.80
2019-01-14T01:51:52.724Z,83.80
2019-01-14T01:54:28.065Z,84.67
2019-01-14T01:57:03.153Z,83.60
2019-01-14T01:59:41.115Z,83.40
2019-01-14T02:02:17.774Z,84.27
2019-01-14T02:05:02.052Z,87.77
2019-01-14T02:07:41.269Z,86.17
2019-01-14T02:10:21.280Z,92.37
2019-01-14T02:13:04.244Z,88.42
2019-01-14T02:15:46.973Z,87.27
2019-01-14T02:18:22.677Z,88.90
2019-01-14T02:20:56.804Z,91.10
2019-01-14T02:23:31.584Z,92.03
2019-01-14T02:26:08.203Z,92.15
2019-01-14T02:28:44.542Z,92.03
2019-01-14T02:31:19.345Z,92.97
2019-01-14T02:33:56.181Z,92.20
2019-01-14T02:36:30.569Z,92.92
2019-01-14T02:39:04.758Z,94.47
2019-01-14T02:41:38.753Z,97.73
2019-01-14T02:44:13.400Z,92.67
2019-01-14T02:46:58.744Z,96.08
2019-01-14T02:49:33.737Z,92.12
2019-01-14T02:52:07.523Z,99.63
2019-01-14T02:54:42.243Z,93.97
2019-01-14T02:57:16.184Z,93.47
2019-01-14T02:59:49.798Z,96.80
2019-01-14T03:02:23.916Z,97.87
2019-01-14T03:04:58.646Z,99.83
2019-01-14T03:07:37.238Z,98.73
2019-01-14T03:10:11.830Z,95.03
2019-01-14T03:12:46.205Z,92.77
2019-01-14T03:15:20.399Z,98.47
2019-01-14T03:17:54.194Z,95.03
2019-01-14T03:20:27.800Z,92.87
2019-01-14T03:23:01.290Z,90.90
2019-01-14T03:25:34.890Z,95.25
2019-01-14T03:28:08.500Z,98.37
2019-01-14T03:30:50.946Z,96.13
2019-01-14T03:33:22.947Z,97.75
2019-01-14T03:35:56.561Z,100.85
2019-01-14T03:38:31.394Z,98.13
2019-01-14T03:41:07.734Z,100.30
2019-01-14T03:43:43.081Z,98.80
2019-01-14T03:46:17.351Z,99.03
2019-01-14T03:48:52.264Z,100.92
2019-01-14T03:51:25.847Z,96.05
2019-01-14T03:54:00.591Z,96.27
2019-01-14T03:56:34.359Z,95.50
2019-01-14T03:59:08.022Z,101.25
2019-01-14T04:01:41.753Z,100.00
2019-01-14T04:04:15.583Z,94.43
2019-01-14T04:06:49.667Z,93.17
2019-01-14T04:09:24.649Z,105.83
2019-01-14T04:11:58.396Z,101.53
2019-01-14T04:14:32.033Z,96.37
2019-01-14T04:17:05.733Z,96.90
2019-01-14T04:19:40.416Z,98.43
2019-01-14T04:22:14.184Z,96.37
2019-01-14T04:24:47.789Z,94.23
2019-01-14T04:27:22.716Z,93.22
2019-01-14T04:29:56.561Z,92.97
2019-01-14T04:32:30.002Z,92.87
2019-01-14T04:35:03.341Z,93.50
2019-01-14T04:37:39.735Z,94.70
2019-01-14T04:40:15.549Z,90.97
2019-01-14T04:42:49.942Z,91.90
2019-01-14T04:45:24.426Z,95.50
2019-01-14T04:47:58.336Z,93.67
2019-01-14T04:50:34.631Z,93.17
2019-01-14T04:53:09.087Z,91.13
2019-01-14T04:55:44.011Z,88.60
2019-01-14T04:58:17.834Z,90.80
2019-01-14T05:00:51.592Z,85.60
2019-01-14T05:03:29.068Z,88.87
2019-01-14T05:06:02.747Z,88.13
2019-01-14T05:08:37.703Z,83.17
2019-01-14T05:11:11.966Z,85.07
2019-01-14T05:13:45.733Z,87.90
2019-01-14T05:16:19.788Z,84.37
2019-01-14T05:18:53.502Z,81.17
2019-01-14T05:21:27.283Z,79.87
2019-01-14T05:24:03.266Z,78.35
2019-01-14T05:26:38.147Z,78.57
2019-01-14T05:29:12.164Z,80.17
2019-01-14T05:31:48.783Z,77.17
2019-01-14T05:34:22.530Z,81.17
2019-01-14T05:36:56.086Z,80.23
2019-01-14T05:39:30.725Z,76.23
2019-01-14T05:42:10.001Z,80.27
2019-01-14T05:44:44.697Z,73.00
2019-01-14T05:47:20.878Z,64.73
2019-01-14T05:49:56.004Z,58.30
2019-01-14T05:52:30.756Z,56.53
2019-01-14T05:55:04.290Z,53.73
2019-01-14T05:57:37.876Z,52.70
2019-01-14T06:00:32.518Z,53.73
2019-01-14T06:03:07.142Z,53.50
2019-01-14T06:05:41.258Z,55.28
2019-01-14T06:08:15.034Z,54.03
2019-01-14T06:10:48.673Z,54.50
2019-01-14T06:13:22.570Z,53.03
2019-01-14T06:15:56.258Z,53.27
2019-01-14T06:18:30.105Z,54.23
2019-01-14T06:21:06.987Z,55.77
2019-01-14T06:23:49.286Z,55.43
2019-01-14T06:26:23.178Z,52.70
2019-01-14T06:28:57.206Z,52.20
2019-01-14T06:31:30.714Z,54.17
2019-01-14T06:34:04.701Z,56.17
2019-01-14T06:36:38.385Z,53.73
2019-01-14T06:39:13.199Z,54.37
2019-01-14T06:41:47.850Z,53.20
2019-01-14T06:44:21.871Z,56.30
2019-01-14T06:46:59.631Z,57.50
2019-01-14T06:49:34.169Z,58.45
2019-01-14T06:52:08.923Z,59.37
2019-01-14T06:54:44.011Z,55.47
2019-01-14T06:57:18.482Z,55.93
2019-01-14T06:59:52.229Z,54.67
2019-01-14T07:02:26.099Z,53.90
2019-01-14T07:04:59.811Z,55.05
2019-01-14T07:07:33.550Z,53.63
2019-01-14T07:10:08.590Z,54.77
2019-01-14T07:12:42.100Z,57.53
2019-01-14T07:15:16.908Z,55.75
2019-01-14T07:17:50.749Z,55.53
2019-01-14T07:20:25.803Z,59.80
2019-01-14T07:23:00.454Z,61.73
2019-01-14T07:25:34.791Z,66.27
2019-01-14T07:28:09.008Z,60.47
2019-01-14T07:30:43.181Z,60.23
2019-01-14T07:33:17.334Z,60.00
2019-01-14T07:35:51.611Z,61.63
2019-01-14T07:38:27.257Z,62.60
2019-01-14T07:41:01.156Z,65.03
2019-01-14T07:43:35.823Z,66.10
2019-01-14T07:46:09.920Z,71.30
2019-01-14T07:48:43.991Z,74.30
2019-01-14T07:51:17.862Z,67.93
2019-01-14T07:53:55.787Z,68.37
2019-01-14T07:56:29.540Z,68.07
2019-01-14T07:59:03.170Z,70.65
2019-01-14T08:01:37.440Z,71.30
2019-01-14T08:04:11.305Z,67.73
2019-01-14T08:06:44.762Z,64.13
2019-01-14T08:09:20.127Z,63.95
2019-01-14T08:11:53.741Z,66.70
2019-01-14T08:14:27.235Z,65.80
2019-01-14T08:17:01.030Z,64.75
2019-01-14T08:19:34.706Z,63.50
2019-01-14T08:22:08.436Z,66.07
2019-01-14T08:24:42.480Z,64.50
2019-01-14T08:27:17.115Z,64.37
2019-01-14T08:29:50.877Z,65.97
2019-01-14T08:32:26.025Z,64.53
2019-01-14T08:34:59.876Z,64.10
2019-01-14T08:37:35.807Z,64.97
2019-01-14T08:40:13.210Z,68.50
2019-01-14T08:42:48.090Z,70.20
2019-01-14T08:45:24.796Z,71.17
2019-01-14T08:47:58.683Z,72.33
2019-01-14T08:50:33.102Z,70.10
2019-01-14T08:53:07.732Z,72.83
2019-01-14T08:55:41.414Z,71.63
2019-01-14T08:58:15.416Z,71.80
2019-01-14T09:00:49.061Z,70.53
2019-01-14T09:03:23.197Z,70.10
2019-01-14T09:05:57.623Z,71.00
2019-01-14T09:08:31.260Z,70.33
2019-01-14T09:11:05.986Z,69.77
2019-01-14T09:13:43.514Z,71.40
2019-01-14T09:16:17.559Z,72.53
2019-01-14T09:18:53.273Z,72.30
2019-01-14T09:21:28.400Z,70.60
2019-01-14T09:24:02.755Z,72.27
2019-01-14T09:26:39.034Z,72.47
2019-01-14T09:29:15.328Z,70.83
2019-01-14T09:31:52.968Z,75.07
2019-01-14T09:34:27.762Z,70.67
2019-01-14T09:37:03.612Z,70.73
2019-01-14T09:39:38.174Z,73.70
2019-01-14T09:42:16.726Z,73.28
2019-01-14T09:44:51.272Z,68.37
2019-01-14T09:47:28.126Z,74.40
2019-01-14T09:50:02.675Z,71.55
2019-01-14T09:52:37.324Z,73.60
2019-01-14T09:55:13.799Z,72.77
2019-01-14T09:57:50.952Z,74.93
2019-01-14T10:00:28.227Z,72.23
2019-01-14T10:03:04.385Z,73.37
2019-01-14T10:05:39.304Z,74.47
2019-01-14T10:08:14.238Z,73.17
2019-01-14T10:10:49.772Z,72.17
2019-01-14T10:13:24.367Z,74.03
2019-01-14T10:15:59.424Z,76.07
2019-01-14T10:18:33.745Z,73.00
2019-01-14T10:21:08.497Z,72.67
2019-01-14T10:23:44.345Z,74.03
2019-01-14T10:26:19.327Z,68.83
2019-01-14T10:28:54.700Z,67.40
2019-01-14T10:31:29.295Z,66.57
2019-01-14T10:34:04.067Z,66.73
2019-01-14T10:36:38.739Z,66.20
2019-01-14T10:39:17.578Z,66.63
2019-01-14T10:41:52.202Z,67.63
2019-01-14T10:44:27.108Z,68.12
2019-01-14T10:47:02.686Z,70.97
2019-01-14T10:49:38.224Z,69.53
2019-01-14T10:52:12.854Z,69.42
2019-01-14T10:54:48.564Z,71.07
2019-01-14T10:57:23.179Z,73.33
2019-01-14T10:59:59.318Z,73.78
2019-01-14T11:02:33.761Z,73.62
2019-01-14T11:05:10.049Z,74.10
2019-01-14T11:07:45.578Z,76.93
2019-01-14T11:10:20.906Z,76.93
2019-01-14T11:12:56.106Z,73.67
2019-01-14T11:15:30.062Z,79.50
2019-01-14T11:18:07.073Z,80.27
2019-01-14T11:20:43.542Z,77.70
2019-01-14T11:23:18.786Z,79.47
2019-01-14T11:25:52.839Z,77.23
2019-01-14T11:28:30.303Z,80.10
2019-01-14T11:31:06.381Z,78.62
2019-01-14T11:33:41.971Z,82.67
2019-01-14T11:36:16.976Z,79.30
2019-01-14T11:38:52.991Z,78.33
2019-01-14T11:41:30.271Z,80.40
2019-01-14T11:44:05.635Z,81.63
2019-01-14T11:46:40.068Z,80.33
2019-01-14T11:49:17.014Z,82.30
2019-01-14T11:51:52.952Z,81.50
2019-01-14T11:54:30.249Z,81.30
2019-01-14T11:57:08.840Z,79.07
2019-01-14T11:59:44.046Z,81.10
2019-01-14T12:02:18.919Z,82.00
2019-01-14T12:04:54.946Z,82.87
2019-01-14T12:07:31.199Z,84.03
2019-01-14T12:10:07.388Z,80.12
2019-01-14T12:12:43.094Z,82.00
2019-01-14T12:15:23.510Z,86.77
2019-01-14T12:18:00.128Z,84.60
2019-01-14T12:20:35.345Z,84.92
2019-01-14T12:23:10.773Z,86.80
2019-01-14T12:25:45.759Z,83.67
2019-01-14T12:28:20.929Z,83.63
2019-01-14T12:30:55.754Z,88.40
2019-01-14T12:33:31.005Z,88.57
2019-01-14T12:36:08.368Z,85.53
2019-01-14T12:38:43.232Z,83.00
2019-01-14T12:41:19.108Z,84.95
2019-01-14T12:43:54.406Z,79.70
2019-01-14T12:46:32.052Z,80.50
2019-01-14T12:49:10.923Z,86.23
2019-01-14T12:51:46.190Z,74.10
2019-01-14T12:54:21.660Z,71.10
2019-01-14T12:56:56.677Z,63.67
2019-01-14T12:59:34.873Z,66.97
2019-01-14T13:02:11.251Z,67.27
2019-01-14T13:04:49.174Z,66.90
2019-01-14T13:07:24.374Z,64.33
2019-01-14T13:10:16.339Z,71.42
2019-01-14T13:12:51.835Z,70.97
2019-01-14T13:15:30.292Z,68.13
2019-01-14T13:18:06.750Z,68.77
2019-01-14T13:20:43.604Z,69.00
2019-01-14T13:23:25.679Z,72.07
2019-01-14T13:26:01.469Z,69.50
2019-01-14T13:31:33.950Z,67.13
2019-01-14T13:34:11.617Z,69.20
2019-01-14T13:36:46.366Z,72.27
2019-01-14T13:39:21.548Z,71.53
2019-01-14T13:41:56.805Z,74.60
2019-01-14T13:44:31.855Z,75.27
2019-01-14T13:47:07.488Z,81.43
2019-01-14T13:49:42.380Z,82.30
2019-01-14T13:52:18.362Z,82.85
2019-01-14T13:54:53.180Z,81.50
2019-01-14T13:57:27.727Z,78.33
2019-01-14T14:00:02.094Z,71.13
2019-01-14T14:02:40.244Z,70.47
2019-01-14T14:05:17.912Z,61.60
2019-01-14T14:07:55.543Z,61.07
2019-01-14T14:10:31.824Z,55.37
2019-01-14T14:13:06.442Z,55.50
2019-01-14T14:15:58.917Z,52.70
2019-01-14T14:18:33.653Z,53.67
2019-01-14T14:21:09.808Z,48.90
2019-01-14T14:26:10.864Z,41.33
2019-01-14T14:39:36.687Z,27.67
2019-01-14T14:42:10.836Z,29.90
2019-01-14T14:44:44.774Z,25.70
2019-01-14T14:47:19.219Z,22.63
2019-01-14T14:49:56.828Z,22.03
2019-01-14T14:52:34.479Z,23.27
2019-01-14T14:55:10.005Z,21.47
2019-01-14T14:57:46.374Z,20.03
2019-01-14T15:00:25.153Z,19.57
2019-01-14T15:02:59.260Z,19.40
2019-01-14T15:05:33.234Z,17.87
2019-01-14T15:08:12.265Z,16.97
2019-01-14T15:10:46.364Z,18.33
2019-01-14T15:13:20.463Z,17.50
2019-01-14T15:15:54.547Z,16.50
2019-01-14T15:18:28.493Z,17.23
2019-01-14T15:21:05.873Z,17.23
2019-01-14T15:23:39.815Z,17.17
2019-01-14T15:26:15.828Z,16.87
2019-01-14T15:28:49.740Z,16.67
2019-01-14T15:31:26.703Z,16.30
2019-01-14T15:34:01.670Z,16.30
2019-01-14T15:36:40.987Z,16.73
2019-01-14T15:39:16.306Z,15.65
2019-01-14T15:41:52.379Z,15.00
2019-01-14T15:44:25.985Z,15.53
2019-01-14T15:47:01.292Z,15.07
2019-01-14T15:49:38.008Z,16.80
2019-01-14T15:52:12.011Z,16.23
2019-01-14T15:54:50.110Z,15.20
2019-01-14T15:57:23.805Z,18.25
2019-01-14T15:59:57.635Z,18.00
2019-01-14T16:02:31.556Z,18.73
2019-01-14T16:05:07.925Z,18.07
2019-01-14T16:07:42.577Z,18.77
2019-01-14T16:10:24.188Z,20.00
2019-01-14T16:12:58.207Z,21.05
2019-01-14T16:15:32.132Z,19.93
2019-01-14T16:18:06.200Z,19.90
2019-01-14T16:20:42.978Z,19.97
2019-01-14T16:23:16.825Z,20.30
2019-01-14T16:25:51.359Z,20.90
2019-01-14T16:28:25.358Z,20.60
2019-01-14T16:30:59.125Z,20.57
2019-01-14T16:33:36.233Z,19.40
2019-01-14T16:36:10.299Z,18.43
2019-01-14T16:38:44.164Z,20.40
2019-01-14T16:41:21.152Z,20.17
2019-01-14T16:43:56.086Z,19.60
2019-01-14T16:46:30.700Z,20.23
2019-01-14T16:49:04.712Z,19.73
2019-01-14T16:51:38.408Z,20.85
2019-01-14T16:54:14.990Z,20.20
2019-01-14T16:56:49.370Z,19.70
2019-01-14T16:59:24.019Z,20.50
2019-01-14T17:01:57.664Z,20.80
2019-01-14T17:04:31.654Z,16.23
2019-01-14T17:07:05.711Z,20.43
2019-01-14T17:09:39.653Z,20.60
2019-01-14T17:12:13.780Z,19.47
2019-01-14T17:14:47.608Z,21.13
2019-01-14T17:17:22.279Z,20.03
2019-01-14T17:19:56.256Z,20.33
2019-01-14T17:22:29.742Z,20.33
2019-01-14T17:25:04.029Z,19.13
2019-01-14T17:27:37.773Z,20.13
2019-01-14T17:30:25.980Z,20.53
2019-01-14T17:33:03.235Z,19.70
2019-01-14T17:36:29.555Z,20.25
2019-01-14T17:39:54.858Z,19.45
2019-01-14T17:43:20.432Z,19.48
2019-01-14T17:46:46.918Z,19.43
2019-01-14T17:50:12.082Z,19.73
2019-01-14T17:53:39.598Z,19.70
2019-01-14T17:57:05.061Z,19.27
2019-01-14T18:00:29.973Z,20.17
2019-01-14T18:03:55.485Z,18.83
2019-01-14T18:07:22.480Z,19.40
2019-01-14T18:09:55.458Z,20.12
2019-01-14T18:12:28.632Z,20.43
2019-01-14T18:15:01.831Z,21.87
2019-01-14T18:17:35.023Z,22.23
2019-01-14T18:20:12.100Z,19.80
2019-01-14T18:22:45.183Z,18.20
2019-01-14T18:25:18.854Z,20.00
2019-01-14T18:27:51.808Z,17.63
2019-01-14T18:30:24.419Z,18.53
2019-01-14T18:32:57.302Z,18.43
2019-01-14T18:35:30.254Z,18.37
2019-01-14T18:38:03.197Z,18.67
2019-01-14T18:40:36.065Z,15.58
2019-01-14T18:43:08.887Z,15.72
2019-01-14T18:45:41.606Z,15.83
2019-01-14T18:48:14.379Z,16.03
2019-01-14T18:50:46.917Z,16.40
2019-01-14T18:53:19.553Z,14.33
2019-01-14T18:55:58.241Z,13.60
2019-01-14T18:58:30.985Z,14.60
2019-01-14T19:01:03.854Z,14.53
2019-01-14T19:03:36.541Z,14.63
2019-01-14T19:06:09.489Z,13.63
2019-01-14T19:08:42.344Z,13.47
2019-01-14T19:11:15.505Z,12.03
2019-01-14T19:13:48.210Z,13.13
2019-01-14T19:16:20.809Z,12.77
2019-01-14T19:18:54.013Z,13.13
2019-01-14T19:21:26.772Z,12.70
2019-01-14T19:24:09.179Z,12.60
2019-01-14T19:26:42.864Z,11.67
2019-01-14T19:29:15.745Z,9.73
2019-01-14T19:31:48.844Z,11.30
2019-01-14T19:34:21.544Z,9.77
2019-01-14T19:36:54.399Z,9.70
2019-01-14T19:39:27.225Z,8.77
2019-01-14T19:42:00.158Z,8.07
2019-01-14T19:44:32.815Z,8.07
2019-01-14T19:47:05.934Z,7.30
2019-01-14T19:49:39.984Z,7.33
2019-01-14T19:52:14.052Z,7.43
2019-01-14T19:54:47.072Z,7.80
2019-01-14T19:57:19.929Z,6.60
2019-01-14T19:59:53.147Z,6.93
2019-01-14T20:02:25.611Z,6.60
2019-01-14T20:04:58.005Z,7.20
2019-01-14T20:07:30.792Z,7.53
2019-01-14T20:10:03.667Z,6.58
2019-01-14T20:12:37.690Z,5.95
2019-01-14T20:15:19.684Z,6.20
2019-01-14T20:17:53.273Z,5.93
2019-01-14T20:20:26.298Z,5.00
2019-01-14T20:22:59.699Z,5.30
2019-01-14T20:25:32.800Z,5.40
2019-01-14T20:28:06.169Z,5.30
2019-01-14T20:30:39.458Z,5.23
2019-01-14T20:33:13.091Z,5.75
2019-01-14T20:35:47.008Z,4.97
2019-01-14T20:38:20.568Z,4.53
2019-01-14T20:40:54.415Z,4.47
2019-01-14T20:43:27.886Z,4.60
2019-01-14T20:46:01.573Z,4.20
2019-01-14T20:48:35.067Z,4.30
2019-01-14T20:51:09.269Z,4.43
2019-01-14T20:53:44.598Z,4.40
2019-01-14T20:56:18.369Z,4.40
2019-01-14T20:58:51.825Z,4.45
2019-01-14T21:01:49.443Z,4.50
2019-01-14T21:04:23.464Z,4.77
2019-01-14T21:06:57.958Z,4.37
2019-01-14T21:09:31.803Z,4.73
2019-01-14T21:12:05.703Z,5.03
2019-01-14T21:14:43.763Z,4.40
2019-01-14T21:17:18.746Z,4.40
2019-01-14T21:19:53.647Z,4.67
2019-01-14T21:22:27.551Z,4.20
2019-01-14T21:25:00.974Z,3.90
2019-01-14T21:27:50.707Z,4.10
2019-01-14T21:30:26.826Z,3.97
2019-01-14T21:33:00.742Z,4.03
2019-01-14T21:35:34.198Z,3.87
2019-01-14T21:38:08.074Z,4.53
2019-01-14T21:40:41.736Z,4.47
2019-01-14T21:43:15.705Z,4.07
2019-01-14T21:45:49.917Z,4.40
2019-01-14T21:48:25.560Z,4.20
2019-01-14T21:51:02.590Z,4.27
2019-01-14T21:53:34.967Z,4.08
2019-01-14T21:56:08.621Z,4.60
2019-01-14T21:58:46.562Z,4.30
2019-01-14T22:01:20.316Z,4.47
2019-01-14T22:03:54.879Z,4.25
2019-01-14T22:06:28.629Z,4.70
2019-01-14T22:09:02.803Z,4.33
2019-01-14T22:11:40.273Z,4.50
2019-01-14T22:14:14.273Z,4.30
2019-01-14T22:16:49.376Z,3.93
2019-01-14T22:19:24.316Z,4.00
2019-01-14T22:21:58.150Z,4.00
2019-01-14T22:24:31.870Z,3.77
2019-01-14T22:27:05.983Z,3.77
2019-01-14T22:29:52.024Z,4.67
2019-01-14T22:32:26.305Z,4.50
2019-01-14T22:35:01.424Z,4.42
2019-01-14T22:37:37.208Z,5.03
2019-01-14T22:40:12.514Z,4.93
2019-01-14T22:42:46.335Z,5.33
2019-01-14T22:45:21.146Z,5.17
2019-01-14T22:47:54.967Z,4.45
2019-01-14T22:50:29.835Z,4.87
2019-01-14T22:53:03.663Z,4.35
2019-01-14T22:55:57.312Z,4.60
2019-01-14T22:58:31.026Z,4.93
2019-01-14T23:01:10.304Z,4.90
2019-01-14T23:03:43.391Z,4.80
2019-01-14T23:06:17.062Z,5.58
2019-01-14T23:08:51.386Z,5.27
2019-01-14T23:11:27.521Z,5.03
2019-01-14T23:14:03.192Z,5.20
2019-01-14T23:16:39.798Z,4.77
2019-01-14T23:19:14.159Z,4.83
2019-01-14T23:21:49.046Z,5.20
2019-01-14T23:24:23.492Z,5.63
2019-01-14T23:26:58.179Z,5.73
2019-01-14T23:29:36.808Z,5.03
2019-01-14T23:32:11.918Z,5.00
2019-01-14T23:34:47.464Z,5.93
2019-01-14T23:37:22.281Z,6.10
2019-01-14T23:39:56.550Z,6.23
2019-01-14T23:42:30.481Z,6.25
2019-01-14T23:45:30.430Z,6.40
2019-01-14T23:48:05.169Z,6.05
2019-01-14T23:50:40.185Z,6.17
2019-01-14T23:53:15.094Z,6.03
2019-01-14T23:55:49.037Z,5.67
2019-01-14T23:58:43.196Z,6.97
